McAlester, Oklahoma
Current Conditions -  °F | °C
As of 12:53 AM on Friday 19 Dec 2014 (Local Time) from KMLC Reporting Station
Overcast Overcast  
Wind Chill: 38°   Ceiling: 1200
Heat Index: 42°   Visibility: 8mi
Dew Point: 39°   Wind: 6mph
Humidity: 89%   Direction: 20°NNE
Pressure: 30.2"   Gusts: NA
Location:  34.93°N, 95.77°W
Report Text: KMLC 190653Z AUTO 02005KT 8SM FEW007 OVC012 06/04 A3020 RMK AO2 SLP229 T00560039
Loading
Personal Weather Stations






























Interactive Weather Map New forecast layout! Learn more

10-Day Weather Forecast

Advertisements
Track Severe Weather on mobile